sensor_id;sensor_type;location;lat;lon;timestamp;pressure;altitude;pressure_sealevel;temperature;humidity
58967;BME280;44744;51.894;5.080;2023-11-18T00:46:34;102457.44;;;5.41;96.23
58967;BME280;44744;51.894;5.080;2023-11-18T00:47:37;102456.73;;;5.40;96.01
58967;BME280;44744;51.894;5.080;2023-11-18T00:48:40;102459.36;;;5.41;96.29
58967;BME280;44744;51.894;5.080;2023-11-18T00:49:44;102457.26;;;5.42;96.02
58967;BME280;44744;51.894;5.080;2023-11-18T00:50:51;102458.48;;;5.43;96.19
58967;BME280;44744;51.894;5.080;2023-11-18T00:51:55;102464.27;;;5.44;96.17
58967;BME280;44744;51.894;5.080;2023-11-18T00:53:10;102464.78;;;5.45;95.99
58967;BME280;44744;51.894;5.080;2023-11-18T00:54:24;102462.84;;;5.45;96.07
58967;BME280;44744;51.894;5.080;2023-11-18T01:23:25;102471.01;;;5.34;96.32
58967;BME280;44744;51.894;5.080;2023-11-18T01:24:29;102467.17;;;5.31;96.43
58967;BME280;44744;51.894;5.080;2023-11-18T01:25:30;102467.16;;;5.33;96.44
58967;BME280;44744;51.894;5.080;2023-11-18T01:26:43;102466.64;;;5.33;96.58
58967;BME280;44744;51.894;5.080;2023-11-18T01:27:44;102463.82;;;5.34;96.53
58967;BME280;44744;51.894;5.080;2023-11-18T01:28:53;102468.02;;;5.35;96.49
58967;BME280;44744;51.894;5.080;2023-11-18T01:29:59;102464.68;;;5.35;96.46
58967;BME280;44744;51.894;5.080;2023-11-18T01:31:08;102468.55;;;5.36;96.41
58967;BME280;44744;51.894;5.080;2023-11-18T01:32:12;102469.95;;;5.36;96.26
58967;BME280;44744;51.894;5.080;2023-11-18T01:33:28;102473.10;;;5.37;96.47
58967;BME280;44744;51.894;5.080;2023-11-18T01:34:28;102473.09;;;5.37;96.37
58967;BME280;44744;51.894;5.080;2023-11-18T01:35:29;102469.24;;;5.35;96.32
58967;BME280;44744;51.894;5.080;2023-11-18T01:36:30;102473.09;;;5.35;96.41
58967;BME280;44744;51.894;5.080;2023-11-18T02:10:31;102482.48;;;5.25;96.73
58967;BME280;44744;51.894;5.080;2023-11-18T02:22:29;102486.14;;;5.26;96.93
58967;BME280;44744;51.894;5.080;2023-11-18T02:23:30;102486.33;;;5.25;96.89
58967;BME280;44744;51.894;5.080;2023-11-18T02:24:34;102485.80;;;5.26;96.88
58967;BME280;44744;51.894;5.080;2023-11-18T02:25:44;102485.98;;;5.27;96.84
58967;BME280;44744;51.894;5.080;2023-11-18T02:26:46;102487.36;;;5.28;96.69
58967;BME280;44744;51.894;5.080;2023-11-18T02:27:55;102485.42;;;5.28;96.76
58967;BME280;44744;51.894;5.080;2023-11-18T02:29:04;102481.21;;;5.30;96.81
58967;BME280;44744;51.894;5.080;2023-11-18T02:30:07;102481.38;;;5.30;96.79
58967;BME280;44744;51.894;5.080;2023-11-18T02:31:15;102485.05;;;5.31;96.90
58967;BME280;44744;51.894;5.080;2023-11-18T02:32:39;102484.17;;;5.31;96.70
58967;BME280;44744;51.894;5.080;2023-11-18T02:35:08;102486.27;;;5.31;96.78
58967;BME280;44744;51.894;5.080;2023-11-18T02:36:15;102484.71;;;5.30;96.77
58967;BME280;44744;51.894;5.080;2023-11-18T02:37:30;102484.38;;;5.30;96.71
58967;BME280;44744;51.894;5.080;2023-11-18T02:38:38;102484.71;;;5.30;96.80
58967;BME280;44744;51.894;5.080;2023-11-18T02:39:53;102478.23;;;5.29;96.72
58967;BME280;44744;51.894;5.080;2023-11-18T02:41:00;102470.50;;;5.30;96.82
58967;BME280;44744;51.894;5.080;2023-11-18T02:42:04;102465.93;;;5.31;96.88
58967;BME280;44744;51.894;5.080;2023-11-18T02:43:13;102462.08;;;5.32;96.83
58967;BME280;44744;51.894;5.080;2023-11-18T02:44:15;102456.98;;;5.32;96.73
58967;BME280;44744;51.894;5.080;2023-11-18T02:45:17;102452.60;;;5.32;96.77
58967;BME280;44744;51.894;5.080;2023-11-18T02:46:20;102450.33;;;5.33;96.84
58967;BME280;44744;51.894;5.080;2023-11-18T02:47:21;102450.67;;;5.33;96.69
58967;BME280;44744;51.894;5.080;2023-11-18T02:48:23;102443.48;;;5.33;96.70
58967;BME280;44744;51.894;5.080;2023-11-18T02:49:26;102442.42;;;5.33;96.74
58967;BME280;44744;51.894;5.080;2023-11-18T02:50:27;102442.95;;;5.32;96.73
58967;BME280;44744;51.894;5.080;2023-11-18T02:51:28;102440.33;;;5.32;96.70
58967;BME280;44744;51.894;5.080;2023-11-18T02:52:28;102440.14;;;5.32;96.65
58967;BME280;44744;51.894;5.080;2023-11-18T02:53:35;102440.50;;;5.32;96.62
58967;BME280;44744;51.894;5.080;2023-11-18T02:54:38;102437.85;;;5.32;96.67
58967;BME280;44744;51.894;5.080;2023-11-18T02:55:41;102441.73;;;5.32;96.69
58967;BME280;44744;51.894;5.080;2023-11-18T02:56:54;102436.11;;;5.31;96.67
58967;BME280;44744;51.894;5.080;2023-11-18T02:58:04;102435.94;;;5.31;96.64
58967;BME280;44744;51.894;5.080;2023-11-18T02:59:07;102434.52;;;5.31;96.74
58967;BME280;44744;51.894;5.080;2023-11-18T03:00:10;102434.00;;;5.31;96.69
58967;BME280;44744;51.894;5.080;2023-11-18T03:01:11;102434.18;;;5.31;96.88
58967;BME280;44744;51.894;5.080;2023-11-18T03:02:14;102434.71;;;5.31;96.79
58967;BME280;44744;51.894;5.080;2023-11-18T03:03:18;102434.70;;;5.31;96.87
58967;BME280;44744;51.894;5.080;2023-11-18T03:04:18;102435.59;;;5.31;96.72
58967;BME280;44744;51.894;5.080;2023-11-18T03:05:18;102436.11;;;5.31;96.78
58967;BME280;44744;51.894;5.080;2023-11-18T03:06:22;102436.11;;;5.31;96.82
58967;BME280;44744;51.894;5.080;2023-11-18T03:07:22;102437.69;;;5.32;96.89
58967;BME280;44744;51.894;5.080;2023-11-18T03:08:23;102436.98;;;5.32;96.77
58967;BME280;44744;51.894;5.080;2023-11-18T03:09:26;102436.46;;;5.32;96.86
58967;BME280;44744;51.894;5.080;2023-11-18T03:10:29;102438.91;;;5.33;96.96
58967;BME280;44744;51.894;5.080;2023-11-18T03:11:39;102439.09;;;5.33;96.94
58967;BME280;44744;51.894;5.080;2023-11-18T03:13:00;102441.38;;;5.33;96.97
58967;BME280;44744;51.894;5.080;2023-11-18T03:14:04;102442.61;;;5.32;97.07
58967;BME280;44744;51.894;5.080;2023-11-18T03:15:11;102443.12;;;5.34;97.05
58967;BME280;44744;51.894;5.080;2023-11-18T03:16:12;102441.55;;;5.32;97.02
58967;BME280;44744;51.894;5.080;2023-11-18T03:17:17;102443.13;;;5.33;96.83
58967;BME280;44744;51.894;5.080;2023-11-18T03:18:24;102446.10;;;5.33;96.95
58967;BME280;44744;51.894;5.080;2023-11-18T03:19:28;102439.45;;;5.32;96.79
58967;BME280;44744;51.894;5.080;2023-11-18T03:20:28;102438.91;;;5.33;96.99
58967;BME280;44744;51.894;5.080;2023-11-18T03:21:29;102433.29;;;5.34;96.90
58967;BME280;44744;51.894;5.080;2023-11-18T03:22:30;102434.70;;;5.34;96.98
58967;BME280;44744;51.894;5.080;2023-11-18T03:23:50;102434.69;;;5.34;96.82
58967;BME280;44744;51.894;5.080;2023-11-18T03:24:59;102440.13;;;5.34;97.07
58967;BME280;44744;51.894;5.080;2023-11-18T03:26:00;102439.96;;;5.34;97.04
58967;BME280;44744;51.894;5.080;2023-11-18T03:36:47;102413.51;;;5.28;97.23
58967;BME280;44744;51.894;5.080;2023-11-18T03:37:57;102410.02;;;5.27;97.28
58967;BME280;44744;51.894;5.080;2023-11-18T03:38:59;102409.65;;;5.28;97.24
58967;BME280;44744;51.894;5.080;2023-11-18T03:40:08;102409.30;;;5.29;97.32
58967;BME280;44744;51.894;5.080;2023-11-18T03:41:11;102402.44;;;5.30;97.41
58967;BME280;44744;51.894;5.080;2023-11-18T03:42:11;102397.34;;;5.31;97.23
58967;BME280;44744;51.894;5.080;2023-11-18T03:43:34;102395.42;;;5.31;97.18
58967;BME280;44744;51.894;5.080;2023-11-18T03:44:39;102388.56;;;5.33;97.28
58967;BME280;44744;51.894;5.080;2023-11-18T03:45:45;102385.41;;;5.33;97.20
58967;BME280;44744;51.894;5.080;2023-11-18T03:46:55;102381.02;;;5.33;97.30
58967;BME280;44744;51.894;5.080;2023-11-18T03:47:58;102375.93;;;5.33;97.38
58967;BME280;44744;51.894;5.080;2023-11-18T03:48:58;102375.75;;;5.33;97.28
58967;BME280;44744;51.894;5.080;2023-11-18T03:50:02;102375.39;;;5.35;97.37
58967;BME280;44744;51.894;5.080;2023-11-18T03:51:05;102374.68;;;5.35;97.49
58967;BME280;44744;51.894;5.080;2023-11-18T03:52:06;102371.34;;;5.35;97.46
58967;BME280;44744;51.894;5.080;2023-11-18T03:53:07;102373.80;;;5.36;97.39
58967;BME280;44744;51.894;5.080;2023-11-18T03:54:08;102366.79;;;5.36;97.35
58967;BME280;44744;51.894;5.080;2023-11-18T03:55:08;102366.77;;;5.37;97.32
58967;BME280;44744;51.894;5.080;2023-11-18T03:56:18;102360.64;;;5.37;97.27
58967;BME280;44744;51.894;5.080;2023-11-18T03:57:21;102358.71;;;5.36;97.33
58967;BME280;44744;51.894;5.080;2023-11-18T03:58:22;102363.43;;;5.38;97.45
58967;BME280;44744;51.894;5.080;2023-11-18T03:59:23;102365.70;;;5.38;97.23
58967;BME280;44744;51.894;5.080;2023-11-18T04:00:23;102365.88;;;5.38;97.44
58967;BME280;44744;51.894;5.080;2023-11-18T04:01:25;102367.28;;;5.39;97.19
58967;BME280;44744;51.894;5.080;2023-11-18T04:02:26;102366.94;;;5.39;97.34
58967;BME280;44744;51.894;5.080;2023-11-18T04:03:35;102362.73;;;5.37;97.31
58967;BME280;44744;51.894;5.080;2023-11-18T04:04:38;102356.95;;;5.37;97.41
58967;BME280;44744;51.894;5.080;2023-11-18T04:05:39;102357.65;;;5.37;97.30
58967;BME280;44744;51.894;5.080;2023-11-18T04:06:43;102360.64;;;5.37;97.46
58967;BME280;44744;51.894;5.080;2023-11-18T04:07:50;102364.48;;;5.39;97.44
58967;BME280;44744;51.894;5.080;2023-11-18T04:08:54;102366.42;;;5.38;97.37
58967;BME280;44744;51.894;5.080;2023-11-18T04:10:00;102360.10;;;5.38;97.43
58967;BME280;44744;51.894;5.080;2023-11-18T04:11:21;102359.39;;;5.38;97.46
58967;BME280;44744;51.894;5.080;2023-11-18T04:12:36;102362.73;;;5.37;97.34
58967;BME280;44744;51.894;5.080;2023-11-18T04:13:36;102367.12;;;5.37;97.33
58967;BME280;44744;51.894;5.080;2023-11-18T04:14:38;102367.66;;;5.37;97.43
58967;BME280;44744;51.894;5.080;2023-11-18T04:15:44;102365.71;;;5.38;97.40
58967;BME280;44744;51.894;5.080;2023-11-18T04:16:58;102362.39;;;5.38;97.35
58967;BME280;44744;51.894;5.080;2023-11-18T04:18:08;102358.34;;;5.39;97.37
58967;BME280;44744;51.894;5.080;2023-11-18T04:19:08;102351.84;;;5.38;97.31
58967;BME280;44744;51.894;5.080;2023-11-18T04:20:29;102350.96;;;5.39;97.34
58967;BME280;44744;51.894;5.080;2023-11-18T04:21:33;102341.67;;;5.38;97.28
58967;BME280;44744;51.894;5.080;2023-11-18T04:22:33;102336.23;;;5.38;97.29
58967;BME280;44744;51.894;5.080;2023-11-18T04:23:38;102333.95;;;5.39;97.34
58967;BME280;44744;51.894;5.080;2023-11-18T04:24:45;102336.23;;;5.39;97.22
58967;BME280;44744;51.894;5.080;2023-11-18T04:25:56;102335.00;;;5.39;97.36
58967;BME280;44744;51.894;5.080;2023-11-18T04:26:59;102335.17;;;5.39;97.50
58967;BME280;44744;51.894;5.080;2023-11-18T04:28:02;102331.85;;;5.39;97.34
58967;BME280;44744;51.894;5.080;2023-11-18T04:29:02;102328.16;;;5.39;97.37
58967;BME280;44744;51.894;5.080;2023-11-18T04:43:55;102310.69;;;5.31;97.50
58967;BME280;44744;51.894;5.080;2023-11-18T04:44:57;102307.87;;;5.31;97.51
58967;BME280;44744;51.894;5.080;2023-11-18T04:45:57;102304.18;;;5.32;97.50
58967;BME280;44744;51.894;5.080;2023-11-18T04:46:58;102301.36;;;5.34;97.50
58967;BME280;44744;51.894;5.080;2023-11-18T04:48:04;102304.34;;;5.35;97.54
58967;BME280;44744;51.894;5.080;2023-11-18T04:49:04;102303.62;;;5.36;97.54
58967;BME280;44744;51.894;5.080;2023-11-18T04:50:10;102302.75;;;5.36;97.44
58967;BME280;44744;51.894;5.080;2023-11-18T04:51:11;102301.16;;;5.37;97.47
58967;BME280;44744;51.894;5.080;2023-11-18T04:52:11;102303.60;;;5.37;97.49
58967;BME280;44744;51.894;5.080;2023-11-18T04:53:12;102305.71;;;5.39;97.52
58967;BME280;44744;51.894;5.080;2023-11-18T04:54:16;102303.94;;;5.39;97.48
58967;BME280;44744;51.894;5.080;2023-11-18T04:55:16;102304.11;;;5.40;97.48
58967;BME280;44744;51.894;5.080;2023-11-18T04:56:20;102303.23;;;5.40;97.41
58967;BME280;44744;51.894;5.080;2023-11-18T04:57:26;102305.33;;;5.40;97.49
58967;BME280;44744;51.894;5.080;2023-11-18T04:58:27;102305.15;;;5.40;97.40
58967;BME280;44744;51.894;5.080;2023-11-18T04:59:27;102304.64;;;5.40;97.35
58967;BME280;44744;51.894;5.080;2023-11-18T05:00:37;102304.44;;;5.41;97.34
58967;BME280;44744;51.894;5.080;2023-11-18T05:01:43;102300.59;;;5.41;97.47
58967;BME280;44744;51.894;5.080;2023-11-18T05:02:46;102300.23;;;5.42;97.42
58967;BME280;44744;51.894;5.080;2023-11-18T05:03:49;102297.60;;;5.41;97.34
58967;BME280;44744;51.894;5.080;2023-11-18T05:04:58;102294.80;;;5.42;97.49
58967;BME280;44744;51.894;5.080;2023-11-18T05:05:59;102299.01;;;5.42;97.43
58967;BME280;44744;51.894;5.080;2023-11-18T05:07:02;102300.59;;;5.42;97.47
58967;BME280;44744;51.894;5.080;2023-11-18T05:08:07;102305.66;;;5.42;97.39
58967;BME280;44744;51.894;5.080;2023-11-18T05:09:07;102299.70;;;5.43;97.32
58967;BME280;44744;51.894;5.080;2023-11-18T05:10:11;102300.73;;;5.43;97.37
58967;BME280;44744;51.894;5.080;2023-11-18T05:11:19;102293.72;;;5.43;97.27
58967;BME280;44744;51.894;5.080;2023-11-18T05:12:22;102290.38;;;5.44;97.38
58967;BME280;44744;51.894;5.080;2023-11-18T05:13:26;102286.52;;;5.44;97.35
58967;BME280;44744;51.894;5.080;2023-11-18T05:14:29;102283.70;;;5.45;97.44
58967;BME280;44744;51.894;5.080;2023-11-18T05:15:42;102277.55;;;5.45;97.31
58967;BME280;44744;51.894;5.080;2023-11-18T05:16:42;102281.41;;;5.45;97.47
58967;BME280;44744;51.894;5.080;2023-11-18T05:17:48;102276.17;;;5.43;97.56
58967;BME280;44744;51.894;5.080;2023-11-18T05:18:48;102274.08;;;5.43;97.53
58967;BME280;44744;51.894;5.080;2023-11-18T05:19:49;102270.73;;;5.44;97.39
58967;BME280;44744;51.894;5.080;2023-11-18T05:20:55;102268.79;;;5.45;97.53
58967;BME280;44744;51.894;5.080;2023-11-18T05:21:55;102267.38;;;5.45;97.46
58967;BME280;44744;51.894;5.080;2023-11-18T05:23:01;102267.73;;;5.45;97.32
58967;BME280;44744;51.894;5.080;2023-11-18T05:24:02;102271.06;;;5.45;97.39
58967;BME280;44744;51.894;5.080;2023-11-18T05:25:10;102268.79;;;5.46;97.43
58967;BME280;44744;51.894;5.080;2023-11-18T05:26:11;102268.60;;;5.46;97.32
58967;BME280;44744;51.894;5.080;2023-11-18T05:28:46;102254.04;;;5.46;97.16
58967;BME280;44744;51.894;5.080;2023-11-18T05:29:46;102258.07;;;5.46;97.23
58967;BME280;44744;51.894;5.080;2023-11-18T05:30:47;102256.32;;;5.46;97.16
58967;BME280;44744;51.894;5.080;2023-11-18T05:31:50;102262.98;;;5.45;97.17
58967;BME280;44744;51.894;5.080;2023-11-18T05:32:57;102267.02;;;5.46;97.25
58967;BME280;44744;51.894;5.080;2023-11-18T05:34:03;102268.05;;;5.47;97.17
58967;BME280;44744;51.894;5.080;2023-11-18T05:35:10;102272.62;;;5.48;97.15
58967;BME280;44744;51.894;5.080;2023-11-18T05:36:18;102268.41;;;5.48;97.31
58967;BME280;44744;51.894;5.080;2023-11-18T05:37:24;102265.60;;;5.48;97.24
58967;BME280;44744;51.894;5.080;2023-11-18T05:38:28;102261.39;;;5.49;97.21
58967;BME280;44744;51.894;5.080;2023-11-18T05:39:28;102256.65;;;5.49;97.24
58967;BME280;44744;51.894;5.080;2023-11-18T05:40:29;102253.13;;;5.49;97.17
58967;BME280;44744;51.894;5.080;2023-11-18T05:41:29;102249.78;;;5.50;97.27
58967;BME280;44744;51.894;5.080;2023-11-18T05:42:39;102251.36;;;5.51;97.21
58967;BME280;44744;51.894;5.080;2023-11-18T05:43:44;102251.86;;;5.52;97.26
58967;BME280;44744;51.894;5.080;2023-11-18T05:44:45;102246.42;;;5.52;97.10
58967;BME280;44744;51.894;5.080;2023-11-18T05:45:45;102243.27;;;5.53;97.17
58967;BME280;44744;51.894;5.080;2023-11-18T05:46:46;102239.77;;;5.53;97.03
58967;BME280;44744;51.894;5.080;2023-11-18T05:47:49;102234.84;;;5.52;97.16
58967;BME280;44744;51.894;5.080;2023-11-18T05:48:55;102233.27;;;5.52;96.86
58967;BME280;44744;51.894;5.080;2023-11-18T05:49:56;102235.71;;;5.53;97.14
58967;BME280;44744;51.894;5.080;2023-11-18T05:50:59;102239.73;;;5.54;96.97
58967;BME280;44744;51.894;5.080;2023-11-18T05:51:59;102239.21;;;5.54;96.96
58967;BME280;44744;51.894;5.080;2023-11-18T05:53:00;102236.58;;;5.53;96.93
58967;BME280;44744;51.894;5.080;2023-11-18T05:54:09;102237.98;;;5.54;96.88
58967;BME280;44744;51.894;5.080;2023-11-18T05:55:11;102237.48;;;5.53;96.93
58967;BME280;44744;51.894;5.080;2023-11-18T05:56:13;102233.09;;;5.52;96.90
58967;BME280;44744;51.894;5.080;2023-11-18T05:57:19;102237.11;;;5.53;97.06
58967;BME280;44744;51.894;5.080;2023-11-18T05:58:23;102236.23;;;5.53;96.84
58967;BME280;44744;51.894;5.080;2023-11-18T05:59:29;102231.16;;;5.52;96.96
58967;BME280;44744;51.894;5.080;2023-11-18T06:00:32;102229.77;;;5.52;96.95
58967;BME280;44744;51.894;5.080;2023-11-18T06:01:37;102231.52;;;5.51;96.88
58967;BME280;44744;51.894;5.080;2023-11-18T06:02:40;102232.39;;;5.52;96.93
58967;BME280;44744;51.894;5.080;2023-11-18T06:03:46;102232.23;;;5.51;96.90
58967;BME280;44744;51.894;5.080;2023-11-18T06:04:47;102227.33;;;5.50;96.86
58967;BME280;44744;51.894;5.080;2023-11-18T06:05:47;102224.69;;;5.50;96.69
58967;BME280;44744;51.894;5.080;2023-11-18T06:06:48;102226.80;;;5.51;96.88
58967;BME280;44744;51.894;5.080;2023-11-18T06:07:57;102222.07;;;5.50;96.90
58967;BME280;44744;51.894;5.080;2023-11-18T06:09:01;102225.73;;;5.50;96.85
58967;BME280;44744;51.894;5.080;2023-11-18T06:10:10;102226.10;;;5.50;96.79
58967;BME280;44744;51.894;5.080;2023-11-18T06:11:19;102228.02;;;5.50;96.98
58967;BME280;44744;51.894;5.080;2023-11-18T06:12:25;102226.79;;;5.50;96.92
58967;BME280;44744;51.894;5.080;2023-11-18T06:13:31;102222.59;;;5.50;96.82
58967;BME280;44744;51.894;5.080;2023-11-18T06:14:37;102226.44;;;5.51;96.87
58967;BME280;44744;51.894;5.080;2023-11-18T06:15:40;102228.20;;;5.51;96.78
58967;BME280;44744;51.894;5.080;2023-11-18T06:16:41;102229.24;;;5.51;96.87
58967;BME280;44744;51.894;5.080;2023-11-18T06:17:43;102233.29;;;5.51;96.89
58967;BME280;44744;51.894;5.080;2023-11-18T06:18:45;102237.85;;;5.51;96.83
58967;BME280;44744;51.894;5.080;2023-11-18T06:19:48;102230.83;;;5.51;96.75
58967;BME280;44744;51.894;5.080;2023-11-18T06:20:49;102225.40;;;5.49;96.73
58967;BME280;44744;51.894;5.080;2023-11-18T06:21:49;102224.20;;;5.47;96.90
58967;BME280;44744;51.894;5.080;2023-11-18T06:22:52;102213.33;;;5.46;96.93
58967;BME280;44744;51.894;5.080;2023-11-18T06:23:57;102210.52;;;5.47;96.78
58967;BME280;44744;51.894;5.080;2023-11-18T06:25:00;102203.85;;;5.46;96.82
58967;BME280;44744;51.894;5.080;2023-11-18T06:26:02;102199.63;;;5.46;96.73
58967;BME280;44744;51.894;5.080;2023-11-18T06:27:05;102196.48;;;5.47;96.84
58967;BME280;44744;51.894;5.080;2023-11-18T06:28:14;102197.34;;;5.47;96.69
58967;BME280;44744;51.894;5.080;2023-11-18T06:29:17;102197.88;;;5.47;96.73
58967;BME280;44744;51.894;5.080;2023-11-18T06:30:18;102194.91;;;5.46;96.59
58967;BME280;44744;51.894;5.080;2023-11-18T06:31:29;102203.67;;;5.47;96.63
58967;BME280;44744;51.894;5.080;2023-11-18T06:32:33;102205.95;;;5.47;96.72
58967;BME280;44744;51.894;5.080;2023-11-18T06:33:45;102212.45;;;5.47;96.64
58967;BME280;44744;51.894;5.080;2023-11-18T06:34:45;102214.38;;;5.47;96.62
58967;BME280;44744;51.894;5.080;2023-11-18T06:35:48;102214.92;;;5.44;96.76
58967;BME280;44744;51.894;5.080;2023-11-18T06:36:51;102217.02;;;5.45;96.64
58967;BME280;44744;51.894;5.080;2023-11-18T07:28:23;102206.30;;;5.61;96.83
58967;BME280;44744;51.894;5.080;2023-11-18T07:29:28;102207.16;;;5.61;96.82
58967;BME280;44744;51.894;5.080;2023-11-18T07:30:38;102213.31;;;5.62;96.91
58967;BME280;44744;51.894;5.080;2023-11-18T07:31:48;102221.88;;;5.63;96.76
58967;BME280;44744;51.894;5.080;2023-11-18T08:39:11;102147.27;;;5.66;96.88
58967;BME280;44744;51.894;5.080;2023-11-18T08:41:34;102144.92;;;5.70;96.92
58967;BME280;44744;51.894;5.080;2023-11-18T17:42:14;101118.46;;;8.92;100.00
58967;BME280;44744;51.894;5.080;2023-11-18T17:46:03;101105.05;;;8.96;100.00
58967;BME280;44744;51.894;5.080;2023-11-18T17:47:29;101094.70;;;8.99;100.00
58967;BME280;44744;51.894;5.080;2023-11-18T17:48:30;101090.36;;;9.01;100.00
58967;BME280;44744;51.894;5.080;2023-11-18T17:49:31;101094.35;;;9.03;100.00
58967;BME280;44744;51.894;5.080;2023-11-18T17:50:31;101099.17;;;9.05;100.00
58967;BME280;44744;51.894;5.080;2023-11-18T17:51:32;101102.05;;;9.08;100.00
58967;BME280;44744;51.894;5.080;2023-11-18T17:52:35;101104.42;;;9.10;100.00
58967;BME280;44744;51.894;5.080;2023-11-18T17:53:36;101107.16;;;9.12;100.00
58967;BME280;44744;51.894;5.080;2023-11-18T17:54:37;101101.93;;;9.14;100.00
58967;BME280;44744;51.894;5.080;2023-11-18T17:55:37;101102.41;;;9.16;100.00
58967;BME280;44744;51.894;5.080;2023-11-18T17:56:41;101098.64;;;9.17;100.00
58967;BME280;44744;51.894;5.080;2023-11-18T17:57:42;101086.22;;;9.19;100.00
58967;BME280;44744;51.894;5.080;2023-11-18T17:58:43;101081.17;;;9.21;100.00
58967;BME280;44744;51.894;5.080;2023-11-18T17:59:44;101081.78;;;9.23;100.00
58967;BME280;44744;51.894;5.080;2023-11-18T18:00:46;101083.31;;;9.25;100.00
58967;BME280;44744;51.894;5.080;2023-11-18T18:01:51;101087.14;;;9.26;100.00
58967;BME280;44744;51.894;5.080;2023-11-18T18:02:53;101086.90;;;9.28;100.00
58967;BME280;44744;51.894;5.080;2023-11-18T18:03:54;101095.11;;;9.29;100.00
58967;BME280;44744;51.894;5.080;2023-11-18T18:04:55;101103.52;;;9.31;100.00
58967;BME280;44744;51.894;5.080;2023-11-18T18:05:56;101102.20;;;9.32;100.00
58967;BME280;44744;51.894;5.080;2023-11-18T18:06:56;101092.63;;;9.33;100.00
58967;BME280;44744;51.894;5.080;2023-11-18T18:08:00;101098.39;;;9.35;100.00
58967;BME280;44744;51.894;5.080;2023-11-18T18:09:01;101092.36;;;9.35;100.00
58967;BME280;44744;51.894;5.080;2023-11-18T18:10:02;101096.37;;;9.36;100.00
58967;BME280;44744;51.894;5.080;2023-11-18T18:11:03;101104.79;;;9.37;100.00
58967;BME280;44744;51.894;5.080;2023-11-18T18:12:07;101108.66;;;9.38;100.00
58967;BME280;44744;51.894;5.080;2023-11-18T18:13:08;101113.73;;;9.39;100.00
58967;BME280;44744;51.894;5.080;2023-11-18T18:14:09;101111.27;;;9.39;100.00
58967;BME280;44744;51.894;5.080;2023-11-18T18:15:10;101113.52;;;9.40;100.00
58967;BME280;44744;51.894;5.080;2023-11-18T18:16:11;101105.54;;;9.41;100.00
58967;BME280;44744;51.894;5.080;2023-11-18T18:17:11;101100.54;;;9.41;100.00
58967;BME280;44744;51.894;5.080;2023-11-18T18:24:57;101088.36;;;9.45;100.00
58967;BME280;44744;51.894;5.080;2023-11-18T18:25:57;101090.09;;;9.46;100.00
58967;BME280;44744;51.894;5.080;2023-11-18T18:30:07;101084.80;;;9.50;100.00
58967;BME280;44744;51.894;5.080;2023-11-18T18:31:08;101082.63;;;9.51;100.00
58967;BME280;44744;51.894;5.080;2023-11-18T18:32:11;101077.80;;;9.52;100.00
58967;BME280;44744;51.894;5.080;2023-11-18T18:33:12;101074.94;;;9.53;100.00
58967;BME280;44744;51.894;5.080;2023-11-18T18:34:16;101073.23;;;9.55;100.00
58967;BME280;44744;51.894;5.080;2023-11-18T18:35:17;101076.17;;;9.57;100.00
58967;BME280;44744;51.894;5.080;2023-11-18T18:36:17;101076.85;;;9.58;100.00
58967;BME280;44744;51.894;5.080;2023-11-18T20:02:50;101033.14;;;10.53;100.00
58967;BME280;44744;51.894;5.080;2023-11-18T20:12:17;101010.33;;;10.64;100.00
58967;BME280;44744;51.894;5.080;2023-11-18T21:29:05;100969.89;;;11.31;100.00
58967;BME280;44744;51.894;5.080;2023-11-18T21:54:43;100976.64;;;11.46;100.00
58967;BME280;44744;51.894;5.080;2023-11-18T22:41:06;100950.59;;;11.83;100.00
58967;BME280;44744;51.894;5.080;2023-11-18T22:42:06;100945.28;;;11.84;100.00
58967;BME280;44744;51.894;5.080;2023-11-18T22:43:06;100951.11;;;11.84;100.00
58967;BME280;44744;51.894;5.080;2023-11-18T22:44:24;100951.43;;;11.84;100.00
58967;BME280;44744;51.894;5.080;2023-11-18T22:45:25;100949.13;;;11.84;100.00
58967;BME280;44744;51.894;5.080;2023-11-18T22:52:07;100944.48;;;11.85;100.00
58967;BME280;44744;51.894;5.080;2023-11-18T23:04:12;100937.70;;;11.89;100.00
58967;BME280;44744;51.894;5.080;2023-11-18T23:05:18;100934.29;;;11.90;100.00
58967;BME280;44744;51.894;5.080;2023-11-18T23:38:12;100943.52;;;12.02;100.00
58967;BME280;44744;51.894;5.080;2023-11-18T23:52:02;100927.89;;;12.08;100.00
58967;BME280;44744;51.894;5.080;2023-11-18T23:53:02;100930.20;;;12.08;100.00
58967;BME280;44744;51.894;5.080;2023-11-18T23:54:03;100926.07;;;12.09;100.00
58967;BME280;44744;51.894;5.080;2023-11-18T23:55:03;100928.20;;;12.09;100.00
58967;BME280;44744;51.894;5.080;2023-11-18T23:56:03;100922.33;;;12.10;100.00
58967;BME280;44744;51.894;5.080;2023-11-18T23:57:06;100914.35;;;12.09;100.00
58967;BME280;44744;51.894;5.080;2023-11-18T23:58:08;100914.91;;;12.09;100.00
58967;BME280;44744;51.894;5.080;2023-11-18T23:59:08;100912.24;;;12.09;100.00
